sensor_id;sensor_type;location;lat;lon;timestamp;pressure;altitude;pressure_sealevel;temperature
19644;BMP180;9970;-36.854;174.870;2023-06-26T00:00:03;100256.00;;;14.50
19644;BMP180;9970;-36.854;174.870;2023-06-26T00:02:36;100251.00;;;14.50
19644;BMP180;9970;-36.854;174.870;2023-06-26T00:05:10;100240.00;;;14.50
19644;BMP180;9970;-36.854;174.870;2023-06-26T00:07:43;100240.00;;;14.50
19644;BMP180;9970;-36.854;174.870;2023-06-26T00:10:15;100240.00;;;14.60
19644;BMP180;9970;-36.854;174.870;2023-06-26T00:12:48;100218.00;;;14.60
19644;BMP180;9970;-36.854;174.870;2023-06-26T00:15:24;100211.00;;;14.60
19644;BMP180;9970;-36.854;174.870;2023-06-26T00:17:58;100218.00;;;14.60
19644;BMP180;9970;-36.854;174.870;2023-06-26T00:20:31;100207.00;;;14.60
19644;BMP180;9970;-36.854;174.870;2023-06-26T00:23:05;100212.00;;;14.70
19644;BMP180;9970;-36.854;174.870;2023-06-26T00:25:38;100204.00;;;14.70
19644;BMP180;9970;-36.854;174.870;2023-06-26T00:28:11;100206.00;;;14.70
19644;BMP180;9970;-36.854;174.870;2023-06-26T00:33:38;100185.00;;;14.70
19644;BMP180;9970;-36.854;174.870;2023-06-26T00:36:10;100183.00;;;14.70
19644;BMP180;9970;-36.854;174.870;2023-06-26T00:38:43;100174.00;;;14.70
19644;BMP180;9970;-36.854;174.870;2023-06-26T00:41:16;100164.00;;;14.70
19644;BMP180;9970;-36.854;174.870;2023-06-26T00:43:49;100164.00;;;14.80
19644;BMP180;9970;-36.854;174.870;2023-06-26T00:46:22;100160.00;;;14.80
19644;BMP180;9970;-36.854;174.870;2023-06-26T00:48:56;100150.00;;;14.80
19644;BMP180;9970;-36.854;174.870;2023-06-26T00:51:31;100148.00;;;14.80
19644;BMP180;9970;-36.854;174.870;2023-06-26T00:54:04;100137.00;;;14.80
19644;BMP180;9970;-36.854;174.870;2023-06-26T00:56:38;100132.00;;;14.90
19644;BMP180;9970;-36.854;174.870;2023-06-26T00:59:11;100125.00;;;14.90
19644;BMP180;9970;-36.854;174.870;2023-06-26T01:01:44;100123.00;;;14.90
19644;BMP180;9970;-36.854;174.870;2023-06-26T01:04:17;100106.00;;;14.90
19644;BMP180;9970;-36.854;174.870;2023-06-26T01:06:51;100100.00;;;14.90
19644;BMP180;9970;-36.854;174.870;2023-06-26T01:09:24;100084.00;;;15.00
19644;BMP180;9970;-36.854;174.870;2023-06-26T01:11:58;100077.00;;;15.00
19644;BMP180;9970;-36.854;174.870;2023-06-26T01:14:31;100070.00;;;15.00
19644;BMP180;9970;-36.854;174.870;2023-06-26T01:17:09;100054.00;;;15.00
19644;BMP180;9970;-36.854;174.870;2023-06-26T01:19:47;100050.00;;;15.10
19644;BMP180;9970;-36.854;174.870;2023-06-26T01:22:43;100046.00;;;15.10
19644;BMP180;9970;-36.854;174.870;2023-06-26T01:28:11;100022.00;;;15.10
19644;BMP180;9970;-36.854;174.870;2023-06-26T01:30:45;100027.00;;;15.10
19644;BMP180;9970;-36.854;174.870;2023-06-26T01:33:19;100018.00;;;15.10
19644;BMP180;9970;-36.854;174.870;2023-06-26T01:35:51;100024.00;;;15.10
19644;BMP180;9970;-36.854;174.870;2023-06-26T01:38:25;100018.00;;;15.20
19644;BMP180;9970;-36.854;174.870;2023-06-26T01:40:57;100031.00;;;15.20
19644;BMP180;9970;-36.854;174.870;2023-06-26T01:43:51;100017.00;;;15.20
19644;BMP180;9970;-36.854;174.870;2023-06-26T01:46:31;100017.00;;;15.20
19644;BMP180;9970;-36.854;174.870;2023-06-26T01:49:21;100021.00;;;15.20
19644;BMP180;9970;-36.854;174.870;2023-06-26T01:52:07;100022.00;;;15.20
19644;BMP180;9970;-36.854;174.870;2023-06-26T01:57:32;100005.00;;;15.20
19644;BMP180;9970;-36.854;174.870;2023-06-26T02:00:07;99997.00;;;15.20
19644;BMP180;9970;-36.854;174.870;2023-06-26T02:02:42;99987.00;;;15.20
19644;BMP180;9970;-36.854;174.870;2023-06-26T02:05:15;99981.00;;;15.20
19644;BMP180;9970;-36.854;174.870;2023-06-26T02:07:50;99983.00;;;15.10
19644;BMP180;9970;-36.854;174.870;2023-06-26T02:10:23;99978.00;;;15.10
19644;BMP180;9970;-36.854;174.870;2023-06-26T02:12:56;99975.00;;;15.20
19644;BMP180;9970;-36.854;174.870;2023-06-26T02:15:29;99979.00;;;15.20
19644;BMP180;9970;-36.854;174.870;2023-06-26T02:18:02;99985.00;;;15.20
19644;BMP180;9970;-36.854;174.870;2023-06-26T02:20:34;99981.00;;;15.20
19644;BMP180;9970;-36.854;174.870;2023-06-26T02:23:08;99969.00;;;15.20
19644;BMP180;9970;-36.854;174.870;2023-06-26T02:25:40;99980.00;;;15.20
19644;BMP180;9970;-36.854;174.870;2023-06-26T02:28:14;99979.00;;;15.20
19644;BMP180;9970;-36.854;174.870;2023-06-26T02:30:47;99975.00;;;15.20
19644;BMP180;9970;-36.854;174.870;2023-06-26T02:33:20;99968.00;;;15.20
19644;BMP180;9970;-36.854;174.870;2023-06-26T02:35:53;99975.00;;;15.20
19644;BMP180;9970;-36.854;174.870;2023-06-26T02:38:26;99983.00;;;15.20
19644;BMP180;9970;-36.854;174.870;2023-06-26T02:40:58;99987.00;;;15.20
19644;BMP180;9970;-36.854;174.870;2023-06-26T02:43:31;99990.00;;;15.20
19644;BMP180;9970;-36.854;174.870;2023-06-26T02:46:04;99991.00;;;15.20
19644;BMP180;9970;-36.854;174.870;2023-06-26T02:48:37;99982.00;;;15.20
19644;BMP180;9970;-36.854;174.870;2023-06-26T02:51:10;99988.00;;;15.20
19644;BMP180;9970;-36.854;174.870;2023-06-26T02:53:43;99980.00;;;15.10
19644;BMP180;9970;-36.854;174.870;2023-06-26T02:56:16;99982.00;;;15.10
19644;BMP180;9970;-36.854;174.870;2023-06-26T02:58:49;99979.00;;;15.10
19644;BMP180;9970;-36.854;174.870;2023-06-26T03:01:21;99977.00;;;15.10
19644;BMP180;9970;-36.854;174.870;2023-06-26T03:03:54;99968.00;;;15.10
19644;BMP180;9970;-36.854;174.870;2023-06-26T03:06:28;99970.00;;;15.10
19644;BMP180;9970;-36.854;174.870;2023-06-26T03:09:01;99972.00;;;15.10
19644;BMP180;9970;-36.854;174.870;2023-06-26T03:11:35;99974.00;;;15.10
19644;BMP180;9970;-36.854;174.870;2023-06-26T03:14:07;99966.00;;;15.10
19644;BMP180;9970;-36.854;174.870;2023-06-26T03:16:44;99979.00;;;15.10
19644;BMP180;9970;-36.854;174.870;2023-06-26T03:19:17;99989.00;;;15.10
19644;BMP180;9970;-36.854;174.870;2023-06-26T03:21:50;99981.00;;;15.00
19644;BMP180;9970;-36.854;174.870;2023-06-26T03:24:23;99981.00;;;15.00
19644;BMP180;9970;-36.854;174.870;2023-06-26T03:26:56;99968.00;;;15.00
19644;BMP180;9970;-36.854;174.870;2023-06-26T03:29:29;99971.00;;;15.00
19644;BMP180;9970;-36.854;174.870;2023-06-26T03:32:02;99968.00;;;15.00
19644;BMP180;9970;-36.854;174.870;2023-06-26T03:34:35;99965.00;;;14.90
19644;BMP180;9970;-36.854;174.870;2023-06-26T03:37:08;99968.00;;;14.90
19644;BMP180;9970;-36.854;174.870;2023-06-26T03:39:41;99984.00;;;14.90
19644;BMP180;9970;-36.854;174.870;2023-06-26T03:42:14;99983.00;;;14.90
19644;BMP180;9970;-36.854;174.870;2023-06-26T03:44:46;99976.00;;;14.80
19644;BMP180;9970;-36.854;174.870;2023-06-26T03:47:20;99973.00;;;14.80
19644;BMP180;9970;-36.854;174.870;2023-06-26T03:49:53;99970.00;;;14.70
19644;BMP180;9970;-36.854;174.870;2023-06-26T03:52:26;99940.00;;;14.60
19644;BMP180;9970;-36.854;174.870;2023-06-26T03:55:00;99926.00;;;14.60
19644;BMP180;9970;-36.854;174.870;2023-06-26T03:57:34;99918.00;;;14.60
19644;BMP180;9970;-36.854;174.870;2023-06-26T04:00:08;99921.00;;;14.60
19644;BMP180;9970;-36.854;174.870;2023-06-26T04:02:42;99906.00;;;14.70
19644;BMP180;9970;-36.854;174.870;2023-06-26T04:05:15;99896.00;;;14.70
19644;BMP180;9970;-36.854;174.870;2023-06-26T04:07:52;99901.00;;;14.70
19644;BMP180;9970;-36.854;174.870;2023-06-26T04:10:28;99905.00;;;14.70
19644;BMP180;9970;-36.854;174.870;2023-06-26T04:13:05;99904.00;;;14.70
19644;BMP180;9970;-36.854;174.870;2023-06-26T04:15:39;99909.00;;;14.60
19644;BMP180;9970;-36.854;174.870;2023-06-26T04:18:12;99904.00;;;14.60
19644;BMP180;9970;-36.854;174.870;2023-06-26T04:21:09;99910.00;;;14.60
19644;BMP180;9970;-36.854;174.870;2023-06-26T04:23:20;99912.00;;;14.60
19644;BMP180;9970;-36.854;174.870;2023-06-26T04:25:53;99910.00;;;14.60
19644;BMP180;9970;-36.854;174.870;2023-06-26T04:28:27;99912.00;;;14.60
19644;BMP180;9970;-36.854;174.870;2023-06-26T04:31:00;99908.00;;;14.60
19644;BMP180;9970;-36.854;174.870;2023-06-26T04:33:34;99914.00;;;14.60
19644;BMP180;9970;-36.854;174.870;2023-06-26T04:36:12;99920.00;;;14.60
19644;BMP180;9970;-36.854;174.870;2023-06-26T04:41:33;99912.00;;;14.60
19644;BMP180;9970;-36.854;174.870;2023-06-26T04:44:10;99922.00;;;14.60
19644;BMP180;9970;-36.854;174.870;2023-06-26T04:46:48;99931.00;;;14.60
19644;BMP180;9970;-36.854;174.870;2023-06-26T04:49:22;99927.00;;;14.60
19644;BMP180;9970;-36.854;174.870;2023-06-26T04:51:55;99923.00;;;14.60
19644;BMP180;9970;-36.854;174.870;2023-06-26T04:54:35;99928.00;;;14.60
19644;BMP180;9970;-36.854;174.870;2023-06-26T04:57:08;99923.00;;;14.50
19644;BMP180;9970;-36.854;174.870;2023-06-26T04:59:48;99915.00;;;14.50
19644;BMP180;9970;-36.854;174.870;2023-06-26T05:02:16;99910.00;;;14.50
19644;BMP180;9970;-36.854;174.870;2023-06-26T05:04:49;99901.00;;;14.50
19644;BMP180;9970;-36.854;174.870;2023-06-26T05:07:23;99900.00;;;14.50
19644;BMP180;9970;-36.854;174.870;2023-06-26T05:09:56;99914.00;;;14.50
19644;BMP180;9970;-36.854;174.870;2023-06-26T05:12:29;99920.00;;;14.50
19644;BMP180;9970;-36.854;174.870;2023-06-26T05:15:02;99904.00;;;14.50
19644;BMP180;9970;-36.854;174.870;2023-06-26T05:17:35;99897.00;;;14.40
19644;BMP180;9970;-36.854;174.870;2023-06-26T05:20:09;99905.00;;;14.40
19644;BMP180;9970;-36.854;174.870;2023-06-26T05:22:43;99894.00;;;14.40
19644;BMP180;9970;-36.854;174.870;2023-06-26T05:25:16;99891.00;;;14.40
19644;BMP180;9970;-36.854;174.870;2023-06-26T05:27:52;99896.00;;;14.40
19644;BMP180;9970;-36.854;174.870;2023-06-26T05:30:30;99892.00;;;14.40
19644;BMP180;9970;-36.854;174.870;2023-06-26T05:33:03;99896.00;;;14.40
19644;BMP180;9970;-36.854;174.870;2023-06-26T05:35:37;99901.00;;;14.40
19644;BMP180;9970;-36.854;174.870;2023-06-26T05:38:16;99900.00;;;14.40
19644;BMP180;9970;-36.854;174.870;2023-06-26T05:40:53;99897.00;;;14.40
19644;BMP180;9970;-36.854;174.870;2023-06-26T05:43:26;99894.00;;;14.30
19644;BMP180;9970;-36.854;174.870;2023-06-26T05:45:59;99884.00;;;14.30
19644;BMP180;9970;-36.854;174.870;2023-06-26T05:48:32;99889.00;;;14.30
19644;BMP180;9970;-36.854;174.870;2023-06-26T05:51:06;99892.00;;;14.30
19644;BMP180;9970;-36.854;174.870;2023-06-26T05:53:41;99882.00;;;14.30
19644;BMP180;9970;-36.854;174.870;2023-06-26T05:56:14;99889.00;;;14.30
19644;BMP180;9970;-36.854;174.870;2023-06-26T05:58:48;99891.00;;;14.30
19644;BMP180;9970;-36.854;174.870;2023-06-26T06:01:22;99885.00;;;14.30
19644;BMP180;9970;-36.854;174.870;2023-06-26T06:03:56;99891.00;;;14.30
19644;BMP180;9970;-36.854;174.870;2023-06-26T06:06:29;99887.00;;;14.20
19644;BMP180;9970;-36.854;174.870;2023-06-26T06:09:02;99903.00;;;14.20
19644;BMP180;9970;-36.854;174.870;2023-06-26T06:11:36;99886.00;;;14.20
19644;BMP180;9970;-36.854;174.870;2023-06-26T06:14:09;99877.00;;;14.20
19644;BMP180;9970;-36.854;174.870;2023-06-26T06:16:42;99872.00;;;14.20
19644;BMP180;9970;-36.854;174.870;2023-06-26T06:19:15;99870.00;;;14.10
19644;BMP180;9970;-36.854;174.870;2023-06-26T06:21:49;99857.00;;;14.10
19644;BMP180;9970;-36.854;174.870;2023-06-26T06:24:22;99876.00;;;14.10
19644;BMP180;9970;-36.854;174.870;2023-06-26T06:26:55;99868.00;;;14.10
19644;BMP180;9970;-36.854;174.870;2023-06-26T06:29:33;99869.00;;;14.10
19644;BMP180;9970;-36.854;174.870;2023-06-26T06:32:06;99872.00;;;14.00
19644;BMP180;9970;-36.854;174.870;2023-06-26T06:34:40;99863.00;;;14.00
19644;BMP180;9970;-36.854;174.870;2023-06-26T06:37:13;99874.00;;;13.90
19644;BMP180;9970;-36.854;174.870;2023-06-26T06:39:46;99873.00;;;13.90
19644;BMP180;9970;-36.854;174.870;2023-06-26T06:42:19;99866.00;;;13.90
19644;BMP180;9970;-36.854;174.870;2023-06-26T06:44:52;99866.00;;;13.90
19644;BMP180;9970;-36.854;174.870;2023-06-26T06:47:25;99861.00;;;13.90
19644;BMP180;9970;-36.854;174.870;2023-06-26T06:49:59;99865.00;;;13.90
19644;BMP180;9970;-36.854;174.870;2023-06-26T06:52:36;99862.00;;;13.90
19644;BMP180;9970;-36.854;174.870;2023-06-26T06:55:15;99866.00;;;13.90
19644;BMP180;9970;-36.854;174.870;2023-06-26T06:57:49;99861.00;;;13.90
19644;BMP180;9970;-36.854;174.870;2023-06-26T07:00:22;99870.00;;;13.90
19644;BMP180;9970;-36.854;174.870;2023-06-26T07:02:56;99871.00;;;13.90
19644;BMP180;9970;-36.854;174.870;2023-06-26T07:05:29;99875.00;;;13.90
19644;BMP180;9970;-36.854;174.870;2023-06-26T07:08:02;99877.00;;;13.90
19644;BMP180;9970;-36.854;174.870;2023-06-26T07:10:35;99881.00;;;13.90
19644;BMP180;9970;-36.854;174.870;2023-06-26T07:13:09;99868.00;;;13.90
19644;BMP180;9970;-36.854;174.870;2023-06-26T07:15:42;99872.00;;;13.90
19644;BMP180;9970;-36.854;174.870;2023-06-26T07:18:16;99876.00;;;13.90
19644;BMP180;9970;-36.854;174.870;2023-06-26T07:20:49;99873.00;;;13.90
19644;BMP180;9970;-36.854;174.870;2023-06-26T07:23:26;99866.00;;;13.90
19644;BMP180;9970;-36.854;174.870;2023-06-26T07:25:59;99858.00;;;13.90
19644;BMP180;9970;-36.854;174.870;2023-06-26T07:28:33;99857.00;;;13.90
19644;BMP180;9970;-36.854;174.870;2023-06-26T07:31:06;99867.00;;;13.90
19644;BMP180;9970;-36.854;174.870;2023-06-26T07:33:40;99859.00;;;13.90
19644;BMP180;9970;-36.854;174.870;2023-06-26T07:36:13;99857.00;;;13.90
19644;BMP180;9970;-36.854;174.870;2023-06-26T07:38:46;99869.00;;;13.90
19644;BMP180;9970;-36.854;174.870;2023-06-26T07:41:19;99861.00;;;13.80
19644;BMP180;9970;-36.854;174.870;2023-06-26T07:43:52;99870.00;;;13.90
19644;BMP180;9970;-36.854;174.870;2023-06-26T07:46:26;99883.00;;;13.90
19644;BMP180;9970;-36.854;174.870;2023-06-26T07:48:59;99910.00;;;13.80
19644;BMP180;9970;-36.854;174.870;2023-06-26T07:51:37;99903.00;;;13.80
19644;BMP180;9970;-36.854;174.870;2023-06-26T07:54:10;99921.00;;;13.70
19644;BMP180;9970;-36.854;174.870;2023-06-26T07:57:00;99919.00;;;13.70
19644;BMP180;9970;-36.854;174.870;2023-06-26T07:59:40;99916.00;;;13.50
19644;BMP180;9970;-36.854;174.870;2023-06-26T08:02:45;99909.00;;;13.40
19644;BMP180;9970;-36.854;174.870;2023-06-26T08:05:16;99905.00;;;13.30
19644;BMP180;9970;-36.854;174.870;2023-06-26T08:07:49;99888.00;;;13.30
19644;BMP180;9970;-36.854;174.870;2023-06-26T08:10:22;99875.00;;;13.30
19644;BMP180;9970;-36.854;174.870;2023-06-26T08:12:56;99871.00;;;13.30
19644;BMP180;9970;-36.854;174.870;2023-06-26T08:15:31;99851.00;;;13.30
19644;BMP180;9970;-36.854;174.870;2023-06-26T08:18:04;99831.00;;;13.30
19644;BMP180;9970;-36.854;174.870;2023-06-26T08:20:37;99823.00;;;13.30
19644;BMP180;9970;-36.854;174.870;2023-06-26T08:23:11;99794.00;;;13.30
19644;BMP180;9970;-36.854;174.870;2023-06-26T08:25:44;99807.00;;;13.20
19644;BMP180;9970;-36.854;174.870;2023-06-26T08:28:18;99808.00;;;13.20
19644;BMP180;9970;-36.854;174.870;2023-06-26T08:30:51;99817.00;;;13.20
19644;BMP180;9970;-36.854;174.870;2023-06-26T08:33:25;99827.00;;;13.20
19644;BMP180;9970;-36.854;174.870;2023-06-26T08:35:59;99836.00;;;13.20
19644;BMP180;9970;-36.854;174.870;2023-06-26T08:38:33;99807.00;;;13.20
19644;BMP180;9970;-36.854;174.870;2023-06-26T08:41:07;99804.00;;;13.20
19644;BMP180;9970;-36.854;174.870;2023-06-26T08:43:40;99796.00;;;13.20
19644;BMP180;9970;-36.854;174.870;2023-06-26T08:46:14;99794.00;;;13.30
19644;BMP180;9970;-36.854;174.870;2023-06-26T08:49:01;99787.00;;;13.30
19644;BMP180;9970;-36.854;174.870;2023-06-26T08:51:42;99781.00;;;13.30
19644;BMP180;9970;-36.854;174.870;2023-06-26T08:57:23;99784.00;;;13.30
19644;BMP180;9970;-36.854;174.870;2023-06-26T08:59:58;99777.00;;;13.30
19644;BMP180;9970;-36.854;174.870;2023-06-26T09:02:31;99769.00;;;13.30
19644;BMP180;9970;-36.854;174.870;2023-06-26T09:05:06;99770.00;;;13.30
19644;BMP180;9970;-36.854;174.870;2023-06-26T09:07:52;99770.00;;;13.30
19644;BMP180;9970;-36.854;174.870;2023-06-26T09:10:32;99775.00;;;13.30
19644;BMP180;9970;-36.854;174.870;2023-06-26T09:13:23;99780.00;;;13.20
19644;BMP180;9970;-36.854;174.870;2023-06-26T09:16:07;99777.00;;;13.20
19644;BMP180;9970;-36.854;174.870;2023-06-26T09:18:45;99780.00;;;13.20
19644;BMP180;9970;-36.854;174.870;2023-06-26T09:21:19;99778.00;;;13.20
19644;BMP180;9970;-36.854;174.870;2023-06-26T09:23:53;99780.00;;;13.20
19644;BMP180;9970;-36.854;174.870;2023-06-26T09:26:27;99784.00;;;13.20
19644;BMP180;9970;-36.854;174.870;2023-06-26T09:29:01;99786.00;;;13.20
19644;BMP180;9970;-36.854;174.870;2023-06-26T09:31:35;99777.00;;;13.20
19644;BMP180;9970;-36.854;174.870;2023-06-26T09:34:10;99765.00;;;13.20
19644;BMP180;9970;-36.854;174.870;2023-06-26T09:36:43;99764.00;;;13.20
19644;BMP180;9970;-36.854;174.870;2023-06-26T09:39:18;99759.00;;;13.20
19644;BMP180;9970;-36.854;174.870;2023-06-26T09:41:52;99750.00;;;13.20
19644;BMP180;9970;-36.854;174.870;2023-06-26T09:44:26;99741.00;;;13.20
19644;BMP180;9970;-36.854;174.870;2023-06-26T09:47:00;99740.00;;;13.20
19644;BMP180;9970;-36.854;174.870;2023-06-26T09:49:35;99747.00;;;13.20
19644;BMP180;9970;-36.854;174.870;2023-06-26T09:52:09;99746.00;;;13.20
19644;BMP180;9970;-36.854;174.870;2023-06-26T09:54:43;99751.00;;;13.10
19644;BMP180;9970;-36.854;174.870;2023-06-26T09:57:19;99747.00;;;13.10
19644;BMP180;9970;-36.854;174.870;2023-06-26T09:59:53;99742.00;;;13.10
19644;BMP180;9970;-36.854;174.870;2023-06-26T10:02:26;99751.00;;;13.10
19644;BMP180;9970;-36.854;174.870;2023-06-26T10:05:00;99751.00;;;13.00
19644;BMP180;9970;-36.854;174.870;2023-06-26T10:07:34;99747.00;;;13.00
19644;BMP180;9970;-36.854;174.870;2023-06-26T10:10:09;99751.00;;;13.00
19644;BMP180;9970;-36.854;174.870;2023-06-26T10:12:44;99742.00;;;13.00
19644;BMP180;9970;-36.854;174.870;2023-06-26T10:15:20;99751.00;;;13.00
19644;BMP180;9970;-36.854;174.870;2023-06-26T10:17:55;99751.00;;;13.00
19644;BMP180;9970;-36.854;174.870;2023-06-26T10:20:33;99768.00;;;13.00
19644;BMP180;9970;-36.854;174.870;2023-06-26T10:23:08;99771.00;;;12.90
19644;BMP180;9970;-36.854;174.870;2023-06-26T10:25:42;99779.00;;;12.90
19644;BMP180;9970;-36.854;174.870;2023-06-26T10:28:18;99778.00;;;12.90
19644;BMP180;9970;-36.854;174.870;2023-06-26T10:30:54;99784.00;;;12.90
19644;BMP180;9970;-36.854;174.870;2023-06-26T10:33:28;99771.00;;;12.90
19644;BMP180;9970;-36.854;174.870;2023-06-26T10:36:20;99772.00;;;12.90
19644;BMP180;9970;-36.854;174.870;2023-06-26T10:38:53;99770.00;;;12.90
19644;BMP180;9970;-36.854;174.870;2023-06-26T10:41:27;99754.00;;;12.90
19644;BMP180;9970;-36.854;174.870;2023-06-26T10:44:07;99745.00;;;12.90
19644;BMP180;9970;-36.854;174.870;2023-06-26T10:46:54;99727.00;;;12.90
19644;BMP180;9970;-36.854;174.870;2023-06-26T10:49:32;99719.00;;;12.90
19644;BMP180;9970;-36.854;174.870;2023-06-26T10:52:06;99715.00;;;12.90
19644;BMP180;9970;-36.854;174.870;2023-06-26T10:54:39;99716.00;;;13.00
19644;BMP180;9970;-36.854;174.870;2023-06-26T10:57:12;99714.00;;;13.00
19644;BMP180;9970;-36.854;174.870;2023-06-26T10:59:46;99716.00;;;13.00
19644;BMP180;9970;-36.854;174.870;2023-06-26T11:02:20;99714.00;;;12.90
19644;BMP180;9970;-36.854;174.870;2023-06-26T11:04:55;99705.00;;;12.90
19644;BMP180;9970;-36.854;174.870;2023-06-26T11:07:30;99709.00;;;12.90
19644;BMP180;9970;-36.854;174.870;2023-06-26T11:10:08;99703.00;;;12.90
19644;BMP180;9970;-36.854;174.870;2023-06-26T11:12:43;99706.00;;;12.90
19644;BMP180;9970;-36.854;174.870;2023-06-26T11:15:22;99701.00;;;12.90
19644;BMP180;9970;-36.854;174.870;2023-06-26T11:17:58;99704.00;;;12.90
19644;BMP180;9970;-36.854;174.870;2023-06-26T11:20:31;99695.00;;;12.90
19644;BMP180;9970;-36.854;174.870;2023-06-26T11:23:05;99701.00;;;12.90
19644;BMP180;9970;-36.854;174.870;2023-06-26T11:25:39;99686.00;;;12.80
19644;BMP180;9970;-36.854;174.870;2023-06-26T11:28:12;99683.00;;;12.80
19644;BMP180;9970;-36.854;174.870;2023-06-26T11:30:45;99699.00;;;12.80
19644;BMP180;9970;-36.854;174.870;2023-06-26T11:33:26;99686.00;;;12.70
19644;BMP180;9970;-36.854;174.870;2023-06-26T11:36:09;99691.00;;;12.70
19644;BMP180;9970;-36.854;174.870;2023-06-26T11:38:41;99687.00;;;12.70
19644;BMP180;9970;-36.854;174.870;2023-06-26T11:41:17;99694.00;;;12.70
19644;BMP180;9970;-36.854;174.870;2023-06-26T11:43:50;99700.00;;;12.70
19644;BMP180;9970;-36.854;174.870;2023-06-26T11:46:24;99689.00;;;12.70
19644;BMP180;9970;-36.854;174.870;2023-06-26T11:48:59;99692.00;;;12.70
19644;BMP180;9970;-36.854;174.870;2023-06-26T11:51:32;99686.00;;;12.60
19644;BMP180;9970;-36.854;174.870;2023-06-26T11:54:07;99680.00;;;12.60
19644;BMP180;9970;-36.854;174.870;2023-06-26T11:56:42;99684.00;;;12.60
19644;BMP180;9970;-36.854;174.870;2023-06-26T11:59:14;99676.00;;;12.60
19644;BMP180;9970;-36.854;174.870;2023-06-26T12:01:47;99667.00;;;12.60
19644;BMP180;9970;-36.854;174.870;2023-06-26T12:04:22;99655.00;;;12.60
19644;BMP180;9970;-36.854;174.870;2023-06-26T12:06:56;99647.00;;;12.60
19644;BMP180;9970;-36.854;174.870;2023-06-26T12:09:29;99652.00;;;12.60
19644;BMP180;9970;-36.854;174.870;2023-06-26T12:12:05;99657.00;;;12.50
19644;BMP180;9970;-36.854;174.870;2023-06-26T12:14:38;99655.00;;;12.50
19644;BMP180;9970;-36.854;174.870;2023-06-26T12:17:15;99652.00;;;12.50
19644;BMP180;9970;-36.854;174.870;2023-06-26T12:19:49;99656.00;;;12.40
19644;BMP180;9970;-36.854;174.870;2023-06-26T12:22:22;99658.00;;;12.40
19644;BMP180;9970;-36.854;174.870;2023-06-26T12:24:59;99648.00;;;12.40
19644;BMP180;9970;-36.854;174.870;2023-06-26T12:27:32;99636.00;;;12.40
19644;BMP180;9970;-36.854;174.870;2023-06-26T12:30:08;99636.00;;;12.40
19644;BMP180;9970;-36.854;174.870;2023-06-26T12:32:44;99629.00;;;12.40
19644;BMP180;9970;-36.854;174.870;2023-06-26T12:35:27;99630.00;;;12.40
19644;BMP180;9970;-36.854;174.870;2023-06-26T12:38:07;99634.00;;;12.30
19644;BMP180;9970;-36.854;174.870;2023-06-26T12:40:49;99636.00;;;12.30
19644;BMP180;9970;-36.854;174.870;2023-06-26T12:43:26;99636.00;;;12.30
19644;BMP180;9970;-36.854;174.870;2023-06-26T12:45:59;99628.00;;;12.30
19644;BMP180;9970;-36.854;174.870;2023-06-26T12:48:40;99628.00;;;12.30
19644;BMP180;9970;-36.854;174.870;2023-06-26T12:51:18;99623.00;;;12.30
19644;BMP180;9970;-36.854;174.870;2023-06-26T12:53:51;99618.00;;;12.30
19644;BMP180;9970;-36.854;174.870;2023-06-26T12:56:24;99613.00;;;12.30
19644;BMP180;9970;-36.854;174.870;2023-06-26T12:58:59;99600.00;;;12.30
19644;BMP180;9970;-36.854;174.870;2023-06-26T13:01:32;99604.00;;;12.30
19644;BMP180;9970;-36.854;174.870;2023-06-26T13:04:06;99587.00;;;12.30
19644;BMP180;9970;-36.854;174.870;2023-06-26T13:06:44;99589.00;;;12.30
19644;BMP180;9970;-36.854;174.870;2023-06-26T13:09:17;99593.00;;;12.30
19644;BMP180;9970;-36.854;174.870;2023-06-26T13:11:50;99591.00;;;12.30
19644;BMP180;9970;-36.854;174.870;2023-06-26T13:14:23;99583.00;;;12.30
19644;BMP180;9970;-36.854;174.870;2023-06-26T13:17:05;99582.00;;;12.30
19644;BMP180;9970;-36.854;174.870;2023-06-26T13:19:39;99587.00;;;12.30
19644;BMP180;9970;-36.854;174.870;2023-06-26T13:22:16;99588.00;;;12.30
19644;BMP180;9970;-36.854;174.870;2023-06-26T13:24:50;99578.00;;;12.30
19644;BMP180;9970;-36.854;174.870;2023-06-26T13:27:23;99578.00;;;12.30
19644;BMP180;9970;-36.854;174.870;2023-06-26T13:29:57;99585.00;;;12.30
19644;BMP180;9970;-36.854;174.870;2023-06-26T13:32:30;99590.00;;;12.30
19644;BMP180;9970;-36.854;174.870;2023-06-26T13:35:03;99590.00;;;12.30
19644;BMP180;9970;-36.854;174.870;2023-06-26T13:37:37;99584.00;;;12.30
19644;BMP180;9970;-36.854;174.870;2023-06-26T13:40:10;99578.00;;;12.30
19644;BMP180;9970;-36.854;174.870;2023-06-26T13:42:44;99576.00;;;12.30
19644;BMP180;9970;-36.854;174.870;2023-06-26T13:45:18;99563.00;;;12.30
19644;BMP180;9970;-36.854;174.870;2023-06-26T13:47:52;99566.00;;;12.30
19644;BMP180;9970;-36.854;174.870;2023-06-26T13:50:25;99571.00;;;12.30
19644;BMP180;9970;-36.854;174.870;2023-06-26T13:53:02;99570.00;;;12.30
19644;BMP180;9970;-36.854;174.870;2023-06-26T13:55:36;99566.00;;;12.30
19644;BMP180;9970;-36.854;174.870;2023-06-26T13:58:09;99578.00;;;12.20
19644;BMP180;9970;-36.854;174.870;2023-06-26T14:00:44;99583.00;;;12.20
19644;BMP180;9970;-36.854;174.870;2023-06-26T14:03:18;99590.00;;;12.20
19644;BMP180;9970;-36.854;174.870;2023-06-26T14:05:52;99589.00;;;12.20
19644;BMP180;9970;-36.854;174.870;2023-06-26T14:08:26;99586.00;;;12.20
19644;BMP180;9970;-36.854;174.870;2023-06-26T14:11:02;99582.00;;;12.20
19644;BMP180;9970;-36.854;174.870;2023-06-26T14:13:35;99589.00;;;12.20
19644;BMP180;9970;-36.854;174.870;2023-06-26T14:16:08;99587.00;;;12.20
19644;BMP180;9970;-36.854;174.870;2023-06-26T14:18:41;99578.00;;;12.10
19644;BMP180;9970;-36.854;174.870;2023-06-26T14:21:14;99572.00;;;12.10
19644;BMP180;9970;-36.854;174.870;2023-06-26T14:23:47;99566.00;;;12.10
19644;BMP180;9970;-36.854;174.870;2023-06-26T14:26:20;99561.00;;;12.10
19644;BMP180;9970;-36.854;174.870;2023-06-26T14:28:53;99562.00;;;12.20
19644;BMP180;9970;-36.854;174.870;2023-06-26T14:31:26;99550.00;;;12.20
19644;BMP180;9970;-36.854;174.870;2023-06-26T14:33:59;99535.00;;;12.10
19644;BMP180;9970;-36.854;174.870;2023-06-26T14:36:34;99529.00;;;12.20
19644;BMP180;9970;-36.854;174.870;2023-06-26T14:39:06;99528.00;;;12.20